sensor_id;sensor_type;location;lat;lon;timestamp;P1;durP1;ratioP1;P2;durP2;ratioP2
31906;SDS011;18455;50.858;13.662;2023-03-04T00:03:08;76.77;;;22.97;;
31906;SDS011;18455;50.858;13.662;2023-03-04T00:08:10;75.90;;;21.17;;
31906;SDS011;18455;50.858;13.662;2023-03-04T00:13:10;62.77;;;18.23;;
31906;SDS011;18455;50.858;13.662;2023-03-04T00:18:10;74.43;;;21.13;;
31906;SDS011;18455;50.858;13.662;2023-03-04T00:23:11;63.17;;;20.00;;
31906;SDS011;18455;50.858;13.662;2023-03-04T00:28:11;60.47;;;16.43;;
31906;SDS011;18455;50.858;13.662;2023-03-04T00:33:12;79.53;;;22.63;;
31906;SDS011;18455;50.858;13.662;2023-03-04T00:38:12;70.43;;;22.70;;
31906;SDS011;18455;50.858;13.662;2023-03-04T00:43:13;66.43;;;18.57;;
31906;SDS011;18455;50.858;13.662;2023-03-04T00:48:13;78.03;;;23.00;;
31906;SDS011;18455;50.858;13.662;2023-03-04T00:53:15;64.37;;;22.90;;
31906;SDS011;18455;50.858;13.662;2023-03-04T00:58:15;67.13;;;22.87;;
31906;SDS011;18455;50.858;13.662;2023-03-04T01:03:16;68.67;;;22.53;;
31906;SDS011;18455;50.858;13.662;2023-03-04T01:08:16;61.03;;;21.40;;
31906;SDS011;18455;50.858;13.662;2023-03-04T01:13:17;54.50;;;17.23;;
31906;SDS011;18455;50.858;13.662;2023-03-04T01:18:17;64.87;;;22.57;;
31906;SDS011;18455;50.858;13.662;2023-03-04T01:23:18;66.23;;;23.37;;
31906;SDS011;18455;50.858;13.662;2023-03-04T01:28:18;64.80;;;25.47;;
31906;SDS011;18455;50.858;13.662;2023-03-04T01:33:18;52.97;;;19.93;;
31906;SDS011;18455;50.858;13.662;2023-03-04T01:38:19;56.23;;;21.53;;
31906;SDS011;18455;50.858;13.662;2023-03-04T01:43:23;60.13;;;21.90;;
31906;SDS011;18455;50.858;13.662;2023-03-04T01:48:29;58.87;;;21.17;;
31906;SDS011;18455;50.858;13.662;2023-03-04T01:53:33;55.57;;;22.30;;
31906;SDS011;18455;50.858;13.662;2023-03-04T01:58:33;51.37;;;20.87;;
31906;SDS011;18455;50.858;13.662;2023-03-04T02:03:33;62.63;;;23.60;;
31906;SDS011;18455;50.858;13.662;2023-03-04T02:08:34;54.00;;;22.70;;
31906;SDS011;18455;50.858;13.662;2023-03-04T02:13:35;63.10;;;25.93;;
31906;SDS011;18455;50.858;13.662;2023-03-04T02:18:35;67.10;;;24.17;;
31906;SDS011;18455;50.858;13.662;2023-03-04T02:29:02;61.97;;;25.60;;
31906;SDS011;18455;50.858;13.662;2023-03-04T02:34:04;64.60;;;24.53;;
31906;SDS011;18455;50.858;13.662;2023-03-04T02:39:10;66.90;;;25.43;;
31906;SDS011;18455;50.858;13.662;2023-03-04T02:44:19;59.23;;;25.00;;
31906;SDS011;18455;50.858;13.662;2023-03-04T02:49:23;58.00;;;24.43;;
31906;SDS011;18455;50.858;13.662;2023-03-04T02:54:25;54.30;;;24.67;;
31906;SDS011;18455;50.858;13.662;2023-03-04T02:59:25;50.50;;;22.77;;
31906;SDS011;18455;50.858;13.662;2023-03-04T03:04:26;50.57;;;22.90;;
31906;SDS011;18455;50.858;13.662;2023-03-04T03:09:28;51.07;;;25.43;;
31906;SDS011;18455;50.858;13.662;2023-03-04T03:14:29;49.03;;;22.57;;
31906;SDS011;18455;50.858;13.662;2023-03-04T03:19:30;49.73;;;22.40;;
31906;SDS011;18455;50.858;13.662;2023-03-04T03:24:30;46.03;;;24.23;;
31906;SDS011;18455;50.858;13.662;2023-03-04T03:29:31;42.57;;;21.37;;
31906;SDS011;18455;50.858;13.662;2023-03-04T03:34:33;44.27;;;20.00;;
31906;SDS011;18455;50.858;13.662;2023-03-04T03:39:33;31.50;;;16.50;;
31906;SDS011;18455;50.858;13.662;2023-03-04T03:44:33;31.93;;;16.03;;
31906;SDS011;18455;50.858;13.662;2023-03-04T03:49:34;34.67;;;17.90;;
31906;SDS011;18455;50.858;13.662;2023-03-04T03:54:34;35.37;;;16.37;;
31906;SDS011;18455;50.858;13.662;2023-03-04T03:59:35;35.67;;;18.27;;
31906;SDS011;18455;50.858;13.662;2023-03-04T04:04:35;31.37;;;15.43;;
31906;SDS011;18455;50.858;13.662;2023-03-04T04:09:36;33.93;;;15.60;;
31906;SDS011;18455;50.858;13.662;2023-03-04T04:14:36;33.33;;;15.73;;
31906;SDS011;18455;50.858;13.662;2023-03-04T04:19:36;35.17;;;17.43;;
31906;SDS011;18455;50.858;13.662;2023-03-04T04:24:39;39.37;;;18.03;;
31906;SDS011;18455;50.858;13.662;2023-03-04T04:29:39;38.97;;;18.17;;
31906;SDS011;18455;50.858;13.662;2023-03-04T04:34:40;39.50;;;17.50;;
31906;SDS011;18455;50.858;13.662;2023-03-04T04:39:40;40.10;;;19.00;;
31906;SDS011;18455;50.858;13.662;2023-03-04T04:44:40;44.90;;;20.63;;
31906;SDS011;18455;50.858;13.662;2023-03-04T04:49:41;40.20;;;17.80;;
31906;SDS011;18455;50.858;13.662;2023-03-04T04:54:41;37.00;;;18.10;;
31906;SDS011;18455;50.858;13.662;2023-03-04T04:59:41;40.40;;;17.77;;
31906;SDS011;18455;50.858;13.662;2023-03-04T05:04:42;42.27;;;19.30;;
31906;SDS011;18455;50.858;13.662;2023-03-04T05:09:42;48.17;;;20.03;;
31906;SDS011;18455;50.858;13.662;2023-03-04T05:14:43;42.20;;;20.13;;
31906;SDS011;18455;50.858;13.662;2023-03-04T05:19:43;43.20;;;21.43;;
31906;SDS011;18455;50.858;13.662;2023-03-04T05:24:43;41.37;;;18.73;;
31906;SDS011;18455;50.858;13.662;2023-03-04T05:29:44;39.00;;;18.70;;
31906;SDS011;18455;50.858;13.662;2023-03-04T05:34:45;35.27;;;18.10;;
31906;SDS011;18455;50.858;13.662;2023-03-04T05:39:46;43.17;;;20.53;;
31906;SDS011;18455;50.858;13.662;2023-03-04T05:44:46;37.40;;;18.77;;
31906;SDS011;18455;50.858;13.662;2023-03-04T05:49:46;31.53;;;18.93;;
31906;SDS011;18455;50.858;13.662;2023-03-04T05:54:47;41.77;;;19.17;;
31906;SDS011;18455;50.858;13.662;2023-03-04T05:59:47;36.07;;;18.70;;
31906;SDS011;18455;50.858;13.662;2023-03-04T06:04:47;32.60;;;17.20;;
31906;SDS011;18455;50.858;13.662;2023-03-04T06:09:48;30.50;;;15.43;;
31906;SDS011;18455;50.858;13.662;2023-03-04T06:14:48;43.20;;;17.77;;
31906;SDS011;18455;50.858;13.662;2023-03-04T06:19:49;32.83;;;17.73;;
31906;SDS011;18455;50.858;13.662;2023-03-04T06:24:49;29.93;;;16.47;;
31906;SDS011;18455;50.858;13.662;2023-03-04T06:29:52;37.10;;;17.43;;
31906;SDS011;18455;50.858;13.662;2023-03-04T06:34:52;32.67;;;17.37;;
31906;SDS011;18455;50.858;13.662;2023-03-04T06:39:53;45.27;;;16.70;;
31906;SDS011;18455;50.858;13.662;2023-03-04T06:44:55;42.97;;;17.20;;
31906;SDS011;18455;50.858;13.662;2023-03-04T06:49:55;31.00;;;15.20;;
31906;SDS011;18455;50.858;13.662;2023-03-04T06:54:55;43.33;;;18.20;;
31906;SDS011;18455;50.858;13.662;2023-03-04T06:59:56;36.17;;;16.20;;
31906;SDS011;18455;50.858;13.662;2023-03-04T07:04:56;30.03;;;14.03;;
31906;SDS011;18455;50.858;13.662;2023-03-04T07:09:56;35.30;;;17.53;;
31906;SDS011;18455;50.858;13.662;2023-03-04T07:14:57;44.83;;;17.63;;
31906;SDS011;18455;50.858;13.662;2023-03-04T07:19:57;32.17;;;17.57;;
31906;SDS011;18455;50.858;13.662;2023-03-04T07:24:57;43.60;;;18.70;;
31906;SDS011;18455;50.858;13.662;2023-03-04T07:29:58;31.83;;;13.70;;
31906;SDS011;18455;50.858;13.662;2023-03-04T07:34:58;45.93;;;14.73;;
31906;SDS011;18455;50.858;13.662;2023-03-04T07:39:58;37.17;;;15.97;;
31906;SDS011;18455;50.858;13.662;2023-03-04T07:44:59;31.10;;;15.13;;
31906;SDS011;18455;50.858;13.662;2023-03-04T07:50:00;37.80;;;15.30;;
31906;SDS011;18455;50.858;13.662;2023-03-04T07:55:01;28.13;;;14.30;;
31906;SDS011;18455;50.858;13.662;2023-03-04T08:00:02;29.20;;;15.27;;
31906;SDS011;18455;50.858;13.662;2023-03-04T08:05:12;32.77;;;14.50;;
31906;SDS011;18455;50.858;13.662;2023-03-04T08:10:12;33.07;;;16.03;;
31906;SDS011;18455;50.858;13.662;2023-03-04T08:15:13;33.67;;;15.37;;
31906;SDS011;18455;50.858;13.662;2023-03-04T08:20:13;33.50;;;14.27;;
31906;SDS011;18455;50.858;13.662;2023-03-04T08:25:13;28.60;;;13.10;;
31906;SDS011;18455;50.858;13.662;2023-03-04T08:30:14;27.23;;;13.27;;
31906;SDS011;18455;50.858;13.662;2023-03-04T08:35:14;30.57;;;13.60;;
31906;SDS011;18455;50.858;13.662;2023-03-04T08:40:15;26.03;;;13.27;;
31906;SDS011;18455;50.858;13.662;2023-03-04T08:45:15;31.13;;;12.70;;
31906;SDS011;18455;50.858;13.662;2023-03-04T08:50:16;22.40;;;12.60;;
31906;SDS011;18455;50.858;13.662;2023-03-04T08:55:16;24.20;;;12.27;;
31906;SDS011;18455;50.858;13.662;2023-03-04T09:00:16;25.73;;;11.63;;
31906;SDS011;18455;50.858;13.662;2023-03-04T09:05:17;23.70;;;10.90;;
31906;SDS011;18455;50.858;13.662;2023-03-04T09:10:17;17.23;;;10.07;;
31906;SDS011;18455;50.858;13.662;2023-03-04T09:15:18;23.10;;;10.47;;
31906;SDS011;18455;50.858;13.662;2023-03-04T09:20:18;28.80;;;11.53;;
31906;SDS011;18455;50.858;13.662;2023-03-04T09:25:20;21.97;;;11.10;;
31906;SDS011;18455;50.858;13.662;2023-03-04T09:30:20;17.73;;;9.90;;
31906;SDS011;18455;50.858;13.662;2023-03-04T09:35:20;22.03;;;10.07;;
31906;SDS011;18455;50.858;13.662;2023-03-04T09:40:22;16.97;;;8.37;;
31906;SDS011;18455;50.858;13.662;2023-03-04T09:45:28;18.93;;;9.43;;
31906;SDS011;18455;50.858;13.662;2023-03-04T09:50:34;18.53;;;8.70;;
31906;SDS011;18455;50.858;13.662;2023-03-04T09:55:41;17.87;;;8.63;;
31906;SDS011;18455;50.858;13.662;2023-03-04T10:00:44;17.93;;;8.37;;
31906;SDS011;18455;50.858;13.662;2023-03-04T10:10:54;14.10;;;7.67;;
31906;SDS011;18455;50.858;13.662;2023-03-04T10:15:55;20.50;;;10.03;;
31906;SDS011;18455;50.858;13.662;2023-03-04T10:21:07;21.90;;;12.03;;
31906;SDS011;18455;50.858;13.662;2023-03-04T10:26:15;32.40;;;17.03;;
31906;SDS011;18455;50.858;13.662;2023-03-04T10:31:20;19.13;;;8.30;;
31906;SDS011;18455;50.858;13.662;2023-03-04T10:41:29;14.63;;;9.10;;
31906;SDS011;18455;50.858;13.662;2023-03-04T10:46:30;12.40;;;7.80;;
31906;SDS011;18455;50.858;13.662;2023-03-04T10:51:31;15.53;;;8.20;;
31906;SDS011;18455;50.858;13.662;2023-03-04T10:56:39;12.93;;;7.40;;
31906;SDS011;18455;50.858;13.662;2023-03-04T11:01:44;17.07;;;8.33;;
31906;SDS011;18455;50.858;13.662;2023-03-04T11:06:44;15.87;;;7.57;;
31906;SDS011;18455;50.858;13.662;2023-03-04T11:11:45;18.47;;;8.00;;
31906;SDS011;18455;50.858;13.662;2023-03-04T11:16:52;15.83;;;6.33;;
31906;SDS011;18455;50.858;13.662;2023-03-04T11:21:55;15.27;;;7.40;;
31906;SDS011;18455;50.858;13.662;2023-03-04T11:27:03;22.93;;;8.07;;
31906;SDS011;18455;50.858;13.662;2023-03-04T11:32:19;16.73;;;8.10;;
31906;SDS011;18455;50.858;13.662;2023-03-04T11:37:32;16.93;;;8.30;;
31906;SDS011;18455;50.858;13.662;2023-03-04T11:42:40;17.00;;;9.17;;
31906;SDS011;18455;50.858;13.662;2023-03-04T11:53:16;16.13;;;7.70;;
31906;SDS011;18455;50.858;13.662;2023-03-04T12:03:56;14.67;;;7.00;;
31906;SDS011;18455;50.858;13.662;2023-03-04T12:14:43;15.90;;;6.50;;
31906;SDS011;18455;50.858;13.662;2023-03-04T12:46:26;14.07;;;6.33;;
31906;SDS011;18455;50.858;13.662;2023-03-04T12:56:44;21.97;;;6.47;;
31906;SDS011;18455;50.858;13.662;2023-03-04T13:07:21;9.77;;;5.60;;
31906;SDS011;18455;50.858;13.662;2023-03-04T13:12:51;13.27;;;6.10;;
31906;SDS011;18455;50.858;13.662;2023-03-04T13:17:56;11.70;;;5.27;;
31906;SDS011;18455;50.858;13.662;2023-03-04T13:23:02;9.83;;;4.60;;
31906;SDS011;18455;50.858;13.662;2023-03-04T13:28:14;9.03;;;5.20;;
31906;SDS011;18455;50.858;13.662;2023-03-04T13:43:35;17.03;;;5.50;;
31906;SDS011;18455;50.858;13.662;2023-03-04T13:48:38;13.07;;;4.70;;
31906;SDS011;18455;50.858;13.662;2023-03-04T13:53:39;13.97;;;4.10;;
31906;SDS011;18455;50.858;13.662;2023-03-04T13:58:41;8.40;;;4.43;;
31906;SDS011;18455;50.858;13.662;2023-03-04T14:03:42;4.73;;;3.57;;
31906;SDS011;18455;50.858;13.662;2023-03-04T14:08:43;12.63;;;5.83;;
31906;SDS011;18455;50.858;13.662;2023-03-04T14:13:46;6.73;;;4.10;;
31906;SDS011;18455;50.858;13.662;2023-03-04T14:19:05;7.07;;;3.90;;
31906;SDS011;18455;50.858;13.662;2023-03-04T14:24:12;9.20;;;5.13;;
31906;SDS011;18455;50.858;13.662;2023-03-04T14:29:21;7.50;;;4.23;;
31906;SDS011;18455;50.858;13.662;2023-03-04T14:34:32;9.43;;;5.30;;
31906;SDS011;18455;50.858;13.662;2023-03-04T14:39:35;6.73;;;3.67;;
31906;SDS011;18455;50.858;13.662;2023-03-04T14:44:38;8.80;;;4.90;;
31906;SDS011;18455;50.858;13.662;2023-03-04T14:49:43;10.37;;;4.00;;
31906;SDS011;18455;50.858;13.662;2023-03-04T14:54:43;10.00;;;4.57;;
31906;SDS011;18455;50.858;13.662;2023-03-04T15:05:26;6.53;;;4.20;;
31906;SDS011;18455;50.858;13.662;2023-03-04T15:10:33;6.23;;;3.27;;
31906;SDS011;18455;50.858;13.662;2023-03-04T15:20:40;9.57;;;3.67;;
31906;SDS011;18455;50.858;13.662;2023-03-04T15:25:40;7.23;;;3.27;;
31906;SDS011;18455;50.858;13.662;2023-03-04T15:30:41;6.90;;;3.30;;
31906;SDS011;18455;50.858;13.662;2023-03-04T15:35:44;4.33;;;3.10;;
31906;SDS011;18455;50.858;13.662;2023-03-04T15:40:48;8.53;;;3.40;;
31906;SDS011;18455;50.858;13.662;2023-03-04T15:45:49;3.77;;;2.73;;
31906;SDS011;18455;50.858;13.662;2023-03-04T15:50:52;8.50;;;3.17;;
31906;SDS011;18455;50.858;13.662;2023-03-04T15:55:57;4.87;;;3.10;;
31906;SDS011;18455;50.858;13.662;2023-03-04T16:00:58;4.70;;;2.97;;
31906;SDS011;18455;50.858;13.662;2023-03-04T16:05:58;7.07;;;3.83;;
31906;SDS011;18455;50.858;13.662;2023-03-04T16:10:58;7.60;;;4.17;;
31906;SDS011;18455;50.858;13.662;2023-03-04T16:15:59;12.23;;;4.83;;
31906;SDS011;18455;50.858;13.662;2023-03-04T16:21:00;8.43;;;4.13;;
31906;SDS011;18455;50.858;13.662;2023-03-04T16:26:01;10.57;;;4.10;;
31906;SDS011;18455;50.858;13.662;2023-03-04T16:31:01;6.77;;;3.77;;
31906;SDS011;18455;50.858;13.662;2023-03-04T16:41:34;8.50;;;3.73;;
31906;SDS011;18455;50.858;13.662;2023-03-04T16:46:36;9.07;;;4.23;;
31906;SDS011;18455;50.858;13.662;2023-03-04T16:51:40;8.80;;;3.97;;
31906;SDS011;18455;50.858;13.662;2023-03-04T16:56:42;14.17;;;3.70;;
31906;SDS011;18455;50.858;13.662;2023-03-04T17:01:43;9.57;;;4.40;;
31906;SDS011;18455;50.858;13.662;2023-03-04T17:06:43;12.63;;;4.50;;
31906;SDS011;18455;50.858;13.662;2023-03-04T17:11:43;9.17;;;4.43;;
31906;SDS011;18455;50.858;13.662;2023-03-04T17:16:44;11.27;;;4.90;;
31906;SDS011;18455;50.858;13.662;2023-03-04T17:21:44;12.93;;;4.60;;
31906;SDS011;18455;50.858;13.662;2023-03-04T17:26:45;12.53;;;4.70;;
31906;SDS011;18455;50.858;13.662;2023-03-04T17:31:45;9.77;;;4.10;;
31906;SDS011;18455;50.858;13.662;2023-03-04T17:36:46;8.17;;;3.77;;
31906;SDS011;18455;50.858;13.662;2023-03-04T17:41:48;9.17;;;3.00;;
31906;SDS011;18455;50.858;13.662;2023-03-04T17:46:49;7.47;;;3.10;;
31906;SDS011;18455;50.858;13.662;2023-03-04T17:51:49;14.60;;;4.60;;
31906;SDS011;18455;50.858;13.662;2023-03-04T17:56:50;9.77;;;4.73;;
31906;SDS011;18455;50.858;13.662;2023-03-04T18:01:50;8.67;;;3.13;;
31906;SDS011;18455;50.858;13.662;2023-03-04T18:06:51;15.43;;;8.33;;
31906;SDS011;18455;50.858;13.662;2023-03-04T18:11:51;9.17;;;3.93;;
31906;SDS011;18455;50.858;13.662;2023-03-04T18:16:51;6.37;;;2.57;;
31906;SDS011;18455;50.858;13.662;2023-03-04T18:21:52;7.77;;;3.03;;
31906;SDS011;18455;50.858;13.662;2023-03-04T18:26:52;13.03;;;4.37;;
31906;SDS011;18455;50.858;13.662;2023-03-04T18:31:53;15.97;;;6.80;;
31906;SDS011;18455;50.858;13.662;2023-03-04T18:36:53;11.23;;;4.57;;
31906;SDS011;18455;50.858;13.662;2023-03-04T18:41:54;147.90;;;49.50;;
31906;SDS011;18455;50.858;13.662;2023-03-04T18:46:54;13.27;;;4.10;;
31906;SDS011;18455;50.858;13.662;2023-03-04T18:51:55;13.63;;;5.40;;
31906;SDS011;18455;50.858;13.662;2023-03-04T18:56:57;14.03;;;2.83;;
31906;SDS011;18455;50.858;13.662;2023-03-04T19:02:03;15.43;;;4.73;;
31906;SDS011;18455;50.858;13.662;2023-03-04T19:07:05;11.97;;;3.60;;
31906;SDS011;18455;50.858;13.662;2023-03-04T19:12:06;8.50;;;2.73;;
31906;SDS011;18455;50.858;13.662;2023-03-04T19:17:06;9.07;;;2.37;;
31906;SDS011;18455;50.858;13.662;2023-03-04T19:22:06;8.13;;;2.67;;
31906;SDS011;18455;50.858;13.662;2023-03-04T19:27:07;7.73;;;3.40;;
31906;SDS011;18455;50.858;13.662;2023-03-04T19:32:07;10.57;;;5.23;;
31906;SDS011;18455;50.858;13.662;2023-03-04T19:37:07;11.53;;;3.87;;
31906;SDS011;18455;50.858;13.662;2023-03-04T19:42:09;12.33;;;5.37;;
31906;SDS011;18455;50.858;13.662;2023-03-04T19:47:10;11.70;;;3.10;;
31906;SDS011;18455;50.858;13.662;2023-03-04T19:52:10;10.30;;;3.07;;
31906;SDS011;18455;50.858;13.662;2023-03-04T19:57:11;13.83;;;3.03;;
31906;SDS011;18455;50.858;13.662;2023-03-04T20:02:11;12.57;;;3.50;;
31906;SDS011;18455;50.858;13.662;2023-03-04T20:07:11;14.67;;;2.80;;
31906;SDS011;18455;50.858;13.662;2023-03-04T20:12:12;14.53;;;3.50;;
31906;SDS011;18455;50.858;13.662;2023-03-04T20:17:12;14.83;;;4.07;;
31906;SDS011;18455;50.858;13.662;2023-03-04T20:22:14;8.13;;;3.50;;
31906;SDS011;18455;50.858;13.662;2023-03-04T20:27:14;14.43;;;4.07;;
31906;SDS011;18455;50.858;13.662;2023-03-04T20:32:14;16.23;;;3.50;;
31906;SDS011;18455;50.858;13.662;2023-03-04T20:37:15;11.27;;;3.60;;
31906;SDS011;18455;50.858;13.662;2023-03-04T20:42:15;11.40;;;4.30;;
31906;SDS011;18455;50.858;13.662;2023-03-04T20:47:15;14.10;;;3.27;;
31906;SDS011;18455;50.858;13.662;2023-03-04T20:52:16;13.93;;;3.07;;
31906;SDS011;18455;50.858;13.662;2023-03-04T20:57:17;19.10;;;3.47;;
31906;SDS011;18455;50.858;13.662;2023-03-04T21:02:18;18.53;;;4.40;;
31906;SDS011;18455;50.858;13.662;2023-03-04T21:07:19;11.00;;;3.57;;
31906;SDS011;18455;50.858;13.662;2023-03-04T21:12:19;18.80;;;4.27;;
31906;SDS011;18455;50.858;13.662;2023-03-04T21:17:20;10.43;;;3.97;;
31906;SDS011;18455;50.858;13.662;2023-03-04T21:22:20;11.33;;;3.77;;
31906;SDS011;18455;50.858;13.662;2023-03-04T21:27:21;21.60;;;4.03;;
31906;SDS011;18455;50.858;13.662;2023-03-04T21:32:24;13.17;;;3.83;;
31906;SDS011;18455;50.858;13.662;2023-03-04T21:37:25;15.63;;;3.60;;
31906;SDS011;18455;50.858;13.662;2023-03-04T21:42:25;16.57;;;3.60;;
31906;SDS011;18455;50.858;13.662;2023-03-04T21:47:26;11.17;;;2.60;;
31906;SDS011;18455;50.858;13.662;2023-03-04T21:52:26;13.73;;;2.87;;
31906;SDS011;18455;50.858;13.662;2023-03-04T21:57:26;12.00;;;3.00;;
31906;SDS011;18455;50.858;13.662;2023-03-04T22:02:27;9.00;;;2.60;;
31906;SDS011;18455;50.858;13.662;2023-03-04T22:07:27;9.87;;;2.90;;
31906;SDS011;18455;50.858;13.662;2023-03-04T22:12:27;10.83;;;3.80;;
31906;SDS011;18455;50.858;13.662;2023-03-04T22:17:28;16.33;;;3.43;;
31906;SDS011;18455;50.858;13.662;2023-03-04T22:22:28;18.50;;;4.00;;
31906;SDS011;18455;50.858;13.662;2023-03-04T22:27:29;14.30;;;4.07;;
31906;SDS011;18455;50.858;13.662;2023-03-04T22:32:30;16.57;;;4.00;;
31906;SDS011;18455;50.858;13.662;2023-03-04T22:37:30;16.03;;;3.20;;
31906;SDS011;18455;50.858;13.662;2023-03-04T22:42:30;11.03;;;3.33;;
31906;SDS011;18455;50.858;13.662;2023-03-04T22:47:31;18.60;;;3.63;;
31906;SDS011;18455;50.858;13.662;2023-03-04T22:52:31;13.90;;;2.93;;
31906;SDS011;18455;50.858;13.662;2023-03-04T22:57:31;10.73;;;2.83;;
31906;SDS011;18455;50.858;13.662;2023-03-04T23:02:32;14.07;;;3.73;;
31906;SDS011;18455;50.858;13.662;2023-03-04T23:07:34;14.13;;;3.47;;
31906;SDS011;18455;50.858;13.662;2023-03-04T23:12:34;14.03;;;3.13;;
31906;SDS011;18455;50.858;13.662;2023-03-04T23:17:35;15.90;;;3.70;;
31906;SDS011;18455;50.858;13.662;2023-03-04T23:22:35;15.13;;;3.27;;
31906;SDS011;18455;50.858;13.662;2023-03-04T23:27:36;19.30;;;3.77;;
31906;SDS011;18455;50.858;13.662;2023-03-04T23:32:36;11.53;;;3.23;;
31906;SDS011;18455;50.858;13.662;2023-03-04T23:37:37;16.27;;;4.17;;
31906;SDS011;18455;50.858;13.662;2023-03-04T23:42:37;8.50;;;2.90;;
31906;SDS011;18455;50.858;13.662;2023-03-04T23:47:38;11.17;;;2.77;;
31906;SDS011;18455;50.858;13.662;2023-03-04T23:52:38;12.63;;;3.77;;
31906;SDS011;18455;50.858;13.662;2023-03-04T23:57:38;13.57;;;3.00;;
